createdAt,value
2022-08-26T07:09:33.101Z,89.94
2022-08-26T07:10:05.268Z,90.37
2022-08-26T07:10:37.679Z,90.36
2022-08-26T07:11:09.660Z,89.92
2022-08-26T07:11:41.188Z,89.78
2022-08-26T07:12:12.635Z,89.81
2022-08-26T07:12:47.189Z,89.45
2022-08-26T07:13:30.511Z,89.83
2022-08-26T07:14:02.452Z,89.58
2022-08-26T07:14:34.433Z,89.55
2022-08-26T07:15:05.998Z,89.29
2022-08-26T07:15:39.983Z,89.27
2022-08-26T07:16:12.651Z,88.85
2022-08-26T07:16:45.005Z,88.88
2022-08-26T07:17:16.569Z,88.72
2022-08-26T07:17:48.052Z,88.71
2022-08-26T07:18:19.523Z,89.01
2022-08-26T07:18:54.513Z,89.10
2022-08-26T07:19:31.109Z,88.96
2022-08-26T07:20:03.888Z,88.82
2022-08-26T07:20:37.297Z,88.63
2022-08-26T07:21:09.570Z,88.65
2022-08-26T07:21:44.152Z,88.80
2022-08-26T07:22:15.951Z,88.62
2022-08-26T07:22:47.888Z,88.66
2022-08-26T07:23:19.366Z,88.76
2022-08-26T07:23:51.225Z,88.45
2022-08-26T07:24:23.675Z,88.22
2022-08-26T07:25:00.062Z,88.21
2022-08-26T07:25:31.547Z,87.96
2022-08-26T07:26:06.816Z,87.67
2022-08-26T07:26:43.083Z,87.94
2022-08-26T07:27:15.458Z,88.35
2022-08-26T07:27:47.022Z,88.52
2022-08-26T07:28:27.852Z,88.67
2022-08-26T07:28:59.565Z,88.65
2022-08-26T07:29:31.070Z,87.88
2022-08-26T07:30:02.724Z,87.41
2022-08-26T07:30:37.807Z,87.43
2022-08-26T07:31:10.023Z,87.05
2022-08-26T07:31:42.867Z,87.24
2022-08-26T07:32:14.867Z,86.99
2022-08-26T07:32:46.351Z,86.78
2022-08-26T07:33:18.055Z,86.66
2022-08-26T07:33:49.656Z,86.46
2022-08-26T07:34:22.974Z,86.46
2022-08-26T07:34:54.394Z,86.74
2022-08-26T07:35:26.166Z,86.61
2022-08-26T07:35:57.581Z,86.33
2022-08-26T07:36:30.220Z,86.16
2022-08-26T07:37:02.100Z,86.06
2022-08-26T07:37:35.566Z,86.29
2022-08-26T07:38:11.102Z,86.28
2022-08-26T07:38:44.286Z,86.24
2022-08-26T07:39:16.588Z,86.08
2022-08-26T07:39:48.122Z,85.92
2022-08-26T07:40:20.754Z,85.88
2022-08-26T07:40:52.331Z,85.75
2022-08-26T07:41:25.064Z,86.05
2022-08-26T07:41:56.588Z,86.54
2022-08-26T07:42:29.312Z,86.44
2022-08-26T07:43:00.922Z,86.42
2022-08-26T07:43:32.602Z,86.37
2022-08-26T07:44:04.278Z,85.84
2022-08-26T07:44:36.918Z,86.27
2022-08-26T07:45:08.501Z,85.75
2022-08-26T07:45:40.009Z,85.43
2022-08-26T07:46:16.448Z,85.88
2022-08-26T07:46:52.358Z,85.25
2022-08-26T07:47:26.343Z,85.67
2022-08-26T07:47:58.424Z,85.37
2022-08-26T07:48:30.121Z,84.93
2022-08-26T07:49:02.135Z,85.34
2022-08-26T07:49:34.744Z,84.92
2022-08-26T07:50:06.560Z,84.76
2022-08-26T07:50:50.097Z,84.84
2022-08-26T07:51:22.558Z,84.48
2022-08-26T07:51:54.535Z,84.61
2022-08-26T07:52:27.464Z,85.24
2022-08-26T07:52:59.220Z,85.11
2022-08-26T07:53:32.025Z,85.00
2022-08-26T07:54:04.054Z,84.60
2022-08-26T07:54:37.452Z,84.34
2022-08-26T07:55:09.603Z,84.22
2022-08-26T07:55:41.041Z,84.48
2022-08-26T07:56:12.687Z,84.89
2022-08-26T07:56:44.656Z,84.42
2022-08-26T07:57:16.108Z,84.74
2022-08-26T07:57:50.606Z,84.81
2022-08-26T07:58:22.141Z,84.76
2022-08-26T07:58:53.718Z,84.81
2022-08-26T07:59:25.771Z,84.29
2022-08-26T07:59:57.473Z,84.02
2022-08-26T08:00:32.723Z,84.11
2022-08-26T08:01:04.512Z,84.63
2022-08-26T08:01:36.628Z,84.89
2022-08-26T08:02:10.472Z,85.03
2022-08-26T08:02:44.586Z,85.17
2022-08-26T08:03:16.044Z,84.63
2022-08-26T08:03:51.570Z,84.30
2022-08-26T08:04:26.553Z,84.25
2022-08-26T08:04:58.547Z,84.55
2022-08-26T08:05:33.532Z,84.22
2022-08-26T08:06:05.458Z,83.38
2022-08-26T08:06:38.632Z,83.29
2022-08-26T08:07:11.529Z,83.40
2022-08-26T08:07:46.698Z,82.90
2022-08-26T08:08:27.748Z,82.76
2022-08-26T08:09:01.257Z,82.89
2022-08-26T08:09:32.848Z,83.16
2022-08-26T08:10:09.656Z,83.00
2022-08-26T08:10:45.037Z,83.07
2022-08-26T08:11:21.193Z,82.82
2022-08-26T08:11:53.033Z,82.66
2022-08-26T08:12:24.513Z,82.50
2022-08-26T08:12:57.619Z,82.60
2022-08-26T08:13:30.333Z,83.08
2022-08-26T08:14:03.507Z,82.94
2022-08-26T08:14:40.121Z,83.01
2022-08-26T08:15:13.486Z,82.59
2022-08-26T08:15:45.001Z,82.58
2022-08-26T08:16:16.473Z,82.45
2022-08-26T08:16:48.219Z,82.24
2022-08-26T08:17:24.856Z,82.22
2022-08-26T08:18:00.206Z,81.93
2022-08-26T08:18:32.373Z,82.16
2022-08-26T08:19:03.939Z,82.47
2022-08-26T08:19:36.651Z,82.35
2022-08-26T08:20:09.083Z,82.35
2022-08-26T08:20:42.300Z,82.38
2022-08-26T08:21:24.115Z,81.98
2022-08-26T08:21:55.819Z,81.98
2022-08-26T08:22:27.314Z,81.57
2022-08-26T08:22:58.870Z,81.72
2022-08-26T08:23:31.579Z,81.59
2022-08-26T08:24:03.240Z,81.07
2022-08-26T08:24:34.945Z,81.59
2022-08-26T08:25:08.273Z,81.55
2022-08-26T08:25:42.046Z,81.54
2022-08-26T08:26:14.184Z,81.43
2022-08-26T08:26:46.077Z,81.62
2022-08-26T08:27:22.854Z,81.66
2022-08-26T08:27:55.391Z,81.43
2022-08-26T08:28:28.648Z,81.39
2022-08-26T08:29:00.184Z,81.61
2022-08-26T08:29:31.867Z,81.67
2022-08-26T08:30:05.148Z,81.60
2022-08-26T08:30:38.288Z,81.75
2022-08-26T08:31:10.330Z,81.58
2022-08-26T08:31:58.269Z,81.40
2022-08-26T08:32:29.997Z,81.18
2022-08-26T08:33:03.205Z,81.51
2022-08-26T08:33:35.323Z,81.33
2022-08-26T08:34:06.790Z,81.75
2022-08-26T08:34:38.324Z,81.29
2022-08-26T08:35:11.042Z,81.31
2022-08-26T08:35:45.948Z,81.32
2022-08-26T08:36:18.622Z,81.70
2022-08-26T08:36:53.312Z,82.17
2022-08-26T08:37:25.346Z,82.06
2022-08-26T08:37:57.147Z,81.36
2022-08-26T08:38:28.602Z,81.82
2022-08-26T08:39:00.073Z,81.36
2022-08-26T08:39:31.573Z,81.23
2022-08-26T08:40:04.552Z,81.84
2022-08-26T08:40:36.085Z,81.92
2022-08-26T08:41:14.062Z,81.45
2022-08-26T08:41:54.568Z,81.17
2022-08-26T08:42:45.333Z,81.27
2022-08-26T08:43:27.564Z,81.00
2022-08-26T08:43:59.788Z,81.14
2022-08-26T08:44:31.604Z,81.03
2022-08-26T08:45:11.269Z,81.21
2022-08-26T08:45:45.003Z,80.85
2022-08-26T08:46:19.557Z,81.00
2022-08-26T08:46:52.315Z,80.72
2022-08-26T08:47:24.089Z,80.76
2022-08-26T08:47:58.088Z,80.86
2022-08-26T08:48:30.862Z,80.76
2022-08-26T08:49:04.174Z,80.26
2022-08-26T08:49:35.698Z,80.21
2022-08-26T08:50:13.024Z,80.02
2022-08-26T08:50:46.373Z,79.81
2022-08-26T08:51:32.943Z,80.08
2022-08-26T08:52:10.144Z,80.61
2022-08-26T08:52:43.755Z,80.62
2022-08-26T08:53:23.625Z,80.86
2022-08-26T08:53:55.336Z,80.54
2022-08-26T08:54:26.936Z,80.69
2022-08-26T08:54:58.381Z,80.43
2022-08-26T08:55:32.726Z,80.43
2022-08-26T08:56:24.720Z,80.50
2022-08-26T08:57:03.793Z,80.06
2022-08-26T08:57:35.879Z,80.26
2022-08-26T08:58:08.970Z,79.93
2022-08-26T08:58:51.907Z,79.84
2022-08-26T08:59:26.729Z,79.27
2022-08-26T09:00:07.283Z,79.20
2022-08-26T09:00:42.004Z,78.97
2022-08-26T09:01:18.430Z,79.51
2022-08-26T09:02:07.961Z,79.30
2022-08-26T09:02:45.467Z,80.18
2022-08-26T09:03:16.908Z,80.19
2022-08-26T09:03:54.791Z,80.47
2022-08-26T09:04:44.111Z,79.78
2022-08-26T09:05:15.771Z,79.90
2022-08-26T09:05:51.416Z,79.66
2022-08-26T09:06:22.930Z,79.21
2022-08-26T09:06:54.823Z,79.59
2022-08-26T09:07:27.168Z,79.19
2022-08-26T09:07:58.597Z,79.22
2022-08-26T09:08:31.497Z,79.70
2022-08-26T09:09:03.507Z,79.70
2022-08-26T09:09:39.833Z,79.10
2022-08-26T09:10:17.594Z,78.30
2022-08-26T09:10:50.889Z,78.30
2022-08-26T09:11:22.368Z,78.43
2022-08-26T09:11:56.269Z,77.88
2022-08-26T09:12:31.125Z,77.46
2022-08-26T09:13:05.261Z,77.74
2022-08-26T09:13:36.763Z,77.01
2022-08-26T09:14:08.226Z,77.18
2022-08-26T09:14:39.729Z,77.13
2022-08-26T09:15:37.390Z,76.29
2022-08-26T09:16:10.832Z,75.93
2022-08-26T09:16:52.707Z,75.80
2022-08-26T09:17:31.283Z,75.03
2022-08-26T09:18:05.858Z,74.54
2022-08-26T09:18:46.190Z,74.64
2022-08-26T09:19:21.407Z,73.44
2022-08-26T09:19:53.774Z,73.72
2022-08-26T09:20:28.827Z,73.47
2022-08-26T09:21:05.310Z,73.72
2022-08-26T09:21:37.113Z,72.48
2022-08-26T09:22:09.579Z,72.58
2022-08-26T09:22:44.318Z,72.85
2022-08-26T09:23:16.052Z,72.85
2022-08-26T09:23:51.954Z,73.30
2022-08-26T09:24:28.573Z,73.50
2022-08-26T09:25:01.549Z,73.10
2022-08-26T09:25:33.533Z,72.79
2022-08-26T09:26:14.716Z,72.67
2022-08-26T09:26:47.595Z,72.78
2022-08-26T09:27:45.997Z,72.74
2022-08-26T09:28:18.799Z,72.58
2022-08-26T09:29:00.667Z,72.67
2022-08-26T09:29:36.010Z,73.05
2022-08-26T09:30:08.478Z,73.09
2022-08-26T09:30:43.062Z,72.97
2022-08-26T09:31:23.372Z,73.72
2022-08-26T09:32:15.096Z,73.31
2022-08-26T09:32:57.300Z,73.72
2022-08-26T09:33:29.997Z,73.88
2022-08-26T09:34:04.567Z,74.09
2022-08-26T09:34:36.300Z,74.18
2022-08-26T09:35:23.464Z,74.35
2022-08-26T09:36:11.224Z,74.77
2022-08-26T09:36:44.227Z,75.02
2022-08-26T09:37:15.675Z,74.58
2022-08-26T09:38:28.955Z,75.11
2022-08-26T09:39:00.595Z,74.89
2022-08-26T09:39:37.787Z,74.63
2022-08-26T09:40:13.865Z,74.13
2022-08-26T09:40:48.492Z,74.19
2022-08-26T09:41:31.849Z,73.75
2022-08-26T09:42:16.860Z,73.86
2022-08-26T09:43:03.403Z,73.90
2022-08-26T09:43:35.612Z,71.61
2022-08-26T09:44:17.995Z,71.76
2022-08-26T09:44:54.953Z,72.33
2022-08-26T09:45:27.848Z,70.89
2022-08-26T09:46:34.879Z,70.49
2022-08-26T09:47:06.936Z,69.65
2022-08-26T09:47:52.502Z,69.53
2022-08-26T09:48:31.589Z,69.36
2022-08-26T09:49:32.693Z,69.23
2022-08-26T09:50:28.942Z,69.02
2022-08-26T09:51:19.532Z,69.12
2022-08-26T09:52:13.932Z,69.73
2022-08-26T09:52:45.480Z,70.10
2022-08-26T09:53:20.833Z,69.92
2022-08-26T09:53:53.962Z,69.86
2022-08-26T09:54:30.404Z,69.38
2022-08-26T09:55:06.110Z,69.47
2022-08-26T09:55:39.496Z,70.14
2022-08-26T09:56:12.621Z,70.09
2022-08-26T09:56:46.405Z,69.03
2022-08-26T09:57:19.244Z,69.07
2022-08-26T09:57:51.663Z,68.63
2022-08-26T09:58:37.930Z,68.58
2022-08-26T09:59:11.112Z,68.69
2022-08-26T09:59:42.911Z,69.08
2022-08-26T10:00:38.721Z,68.81
2022-08-26T10:01:36.316Z,68.63
2022-08-26T10:02:22.776Z,67.90
2022-08-26T10:02:57.903Z,68.64
2022-08-26T10:03:33.325Z,68.16
2022-08-26T10:04:06.756Z,69.22
2022-08-26T10:04:38.351Z,68.70
2022-08-26T10:05:10.662Z,68.21
2022-08-26T10:05:45.869Z,68.22
2022-08-26T10:06:17.296Z,67.64
2022-08-26T10:06:55.000Z,68.58
2022-08-26T10:07:35.348Z,68.20
2022-08-26T10:08:18.053Z,68.60
2022-08-26T10:08:51.703Z,67.77
2022-08-26T10:09:25.929Z,68.96
2022-08-26T10:09:59.660Z,69.15
2022-08-26T10:10:32.704Z,69.17
2022-08-26T10:11:07.227Z,68.53
2022-08-26T10:11:52.236Z,68.37
2022-08-26T10:12:23.724Z,69.48
2022-08-26T10:13:03.667Z,68.64
2022-08-26T10:13:36.424Z,68.50
2022-08-26T10:14:09.238Z,69.22
2022-08-26T10:15:23.574Z,69.35
2022-08-26T10:15:59.639Z,68.92
2022-08-26T10:16:34.440Z,69.34
2022-08-26T10:17:11.707Z,69.05
2022-08-26T10:18:04.013Z,68.17
2022-08-26T10:18:37.024Z,68.33
2022-08-26T10:19:10.251Z,67.70
2022-08-26T10:19:56.869Z,68.18
2022-08-26T10:20:31.374Z,68.87
2022-08-26T10:21:04.991Z,68.71
2022-08-26T10:21:41.844Z,68.57
2022-08-26T10:22:20.399Z,68.94
2022-08-26T10:23:12.229Z,69.03
2022-08-26T10:23:48.583Z,69.52
2022-08-26T10:24:41.170Z,69.70
2022-08-26T10:25:14.901Z,70.21
2022-08-26T10:25:53.594Z,70.21
2022-08-26T10:26:53.338Z,70.43
2022-08-26T10:27:25.336Z,70.68
2022-08-26T10:28:01.011Z,70.61
2022-08-26T10:28:40.754Z,70.55
2022-08-26T10:29:14.237Z,70.65
2022-08-26T10:29:46.623Z,70.63
2022-08-26T10:30:23.396Z,71.18
2022-08-26T10:31:02.031Z,71.07
2022-08-26T10:31:41.057Z,71.37
2022-08-26T10:32:14.672Z,71.25
2022-08-26T10:32:47.823Z,71.89
2022-08-26T10:33:19.288Z,71.57
2022-08-26T10:33:52.518Z,72.58
2022-08-26T10:34:25.812Z,72.23
2022-08-26T10:34:57.239Z,72.38
2022-08-26T10:35:28.980Z,72.02
2022-08-26T10:36:02.096Z,71.89
2022-08-26T10:37:14.467Z,72.01
2022-08-26T10:37:44.098Z,71.86
2022-08-26T10:38:18.001Z,71.47
2022-08-26T10:38:49.502Z,71.34
2022-08-26T10:39:26.154Z,71.46
2022-08-26T10:40:00.771Z,71.81
2022-08-26T10:40:38.068Z,71.67
2022-08-26T10:41:11.435Z,71.36
2022-08-26T10:41:44.618Z,72.35
2022-08-26T10:42:22.739Z,72.71
2022-08-26T10:42:57.323Z,72.91
2022-08-26T10:43:40.959Z,72.85
2022-08-26T10:44:12.822Z,72.29
2022-08-26T10:44:44.943Z,72.26
2022-08-26T10:45:21.943Z,72.14
2022-08-26T10:45:54.594Z,72.45
2022-08-26T10:46:28.514Z,72.29
2022-08-26T10:47:02.312Z,72.49
2022-08-26T10:47:45.160Z,72.81
2022-08-26T10:48:24.881Z,72.51
2022-08-26T10:48:59.866Z,73.01
2022-08-26T10:49:31.820Z,72.99
2022-08-26T10:50:03.786Z,73.50
2022-08-26T10:50:41.799Z,73.65
2022-08-26T10:51:13.652Z,73.35
2022-08-26T10:51:58.884Z,74.01
2022-08-26T10:52:36.662Z,73.88
2022-08-26T10:53:12.035Z,73.82
2022-08-26T10:53:46.688Z,73.71
2022-08-26T10:54:34.191Z,73.74
2022-08-26T10:55:08.475Z,72.99
2022-08-26T10:56:00.334Z,72.62
2022-08-26T10:56:40.815Z,73.24
2022-08-26T10:57:15.901Z,72.78
2022-08-26T10:57:58.521Z,73.04
2022-08-26T10:58:48.096Z,72.81
2022-08-26T10:59:38.312Z,72.14
2022-08-26T11:00:44.035Z,71.66
2022-08-26T11:01:40.848Z,72.54
2022-08-26T11:02:32.960Z,71.62
2022-08-26T11:03:22.775Z,72.07
2022-08-26T11:03:59.667Z,70.98
2022-08-26T11:04:38.410Z,71.21
2022-08-26T11:05:15.875Z,71.52
2022-08-26T11:06:08.667Z,70.85
2022-08-26T11:06:40.266Z,70.73
2022-08-26T11:07:30.047Z,70.73
2022-08-26T11:08:27.838Z,70.15
2022-08-26T11:09:01.004Z,70.85
2022-08-26T11:09:53.212Z,70.51
2022-08-26T11:10:24.802Z,70.56
2022-08-26T11:10:59.435Z,69.99
2022-08-26T11:11:34.883Z,70.36
2022-08-26T11:12:10.289Z,69.83
2022-08-26T11:12:42.164Z,70.27
2022-08-26T11:13:13.686Z,69.29
2022-08-26T11:13:58.099Z,69.37
2022-08-26T11:14:34.244Z,69.62
2022-08-26T11:15:24.631Z,69.95
2022-08-26T11:15:58.540Z,70.02
2022-08-26T11:16:42.937Z,70.02
2022-08-26T11:17:15.420Z,70.57
2022-08-26T11:17:46.903Z,71.02
2022-08-26T11:18:37.441Z,70.44
2022-08-26T11:19:09.860Z,70.85
2022-08-26T11:20:00.786Z,71.49
2022-08-26T11:20:41.947Z,71.90
2022-08-26T11:21:43.347Z,72.26
2022-08-26T11:22:26.848Z,72.06
2022-08-26T11:23:18.732Z,72.05
2022-08-26T11:23:52.922Z,72.07
2022-08-26T11:24:43.081Z,72.06
2022-08-26T11:25:18.382Z,72.24
2022-08-26T11:25:56.139Z,72.81
2022-08-26T11:26:43.177Z,72.95
2022-08-26T11:27:26.715Z,73.08
2022-08-26T11:27:59.660Z,72.75
2022-08-26T11:28:53.348Z,72.87
2022-08-26T11:29:44.856Z,73.57
2022-08-26T11:30:18.460Z,72.96
2022-08-26T11:30:57.027Z,73.23
2022-08-26T11:31:30.715Z,72.92
2022-08-26T11:32:03.493Z,72.80
2022-08-26T11:32:35.140Z,72.99
2022-08-26T11:33:08.234Z,72.71
2022-08-26T11:33:47.963Z,72.65
2022-08-26T11:34:20.078Z,72.81
2022-08-26T11:34:57.808Z,72.98
2022-08-26T11:35:37.594Z,73.13
2022-08-26T11:36:12.168Z,72.79
2022-08-26T11:36:47.047Z,72.37
2022-08-26T11:37:57.298Z,72.47
2022-08-26T11:38:29.006Z,72.85
2022-08-26T11:39:21.214Z,73.51
2022-08-26T11:39:55.320Z,73.21
2022-08-26T11:40:32.632Z,72.79
2022-08-26T11:41:09.086Z,72.70
2022-08-26T11:41:44.200Z,72.82
2022-08-26T11:42:20.075Z,72.64
2022-08-26T11:42:58.232Z,72.92
2022-08-26T11:43:31.599Z,73.01
2022-08-26T11:44:07.075Z,72.49
2022-08-26T11:44:39.898Z,72.92
2022-08-26T11:45:47.659Z,72.69
2022-08-26T11:46:28.580Z,73.11
2022-08-26T11:47:00.574Z,73.30
2022-08-26T11:47:32.041Z,73.21
2022-08-26T11:48:22.155Z,72.98
2022-08-26T11:49:02.104Z,74.02
2022-08-26T11:49:33.848Z,74.01
2022-08-26T11:50:06.550Z,73.55
2022-08-26T11:50:38.004Z,73.89
2022-08-26T11:51:11.159Z,74.16
2022-08-26T11:51:48.109Z,73.85
2022-08-26T11:52:22.020Z,73.99
2022-08-26T11:52:54.742Z,74.20
2022-08-26T11:53:26.573Z,74.33
2022-08-26T11:54:10.528Z,74.33
2022-08-26T11:54:58.789Z,74.40
2022-08-26T11:55:35.913Z,74.26
2022-08-26T11:56:12.697Z,74.76
2022-08-26T11:56:45.251Z,74.26
2022-08-26T11:57:16.734Z,73.88
2022-08-26T11:57:49.794Z,73.88
2022-08-26T11:58:22.538Z,74.31
2022-08-26T11:58:57.462Z,73.83
2022-08-26T12:00:14.204Z,73.78
2022-08-26T12:01:03.455Z,73.96
2022-08-26T12:01:36.233Z,74.10
2022-08-26T12:02:12.398Z,73.99
2022-08-26T12:02:43.869Z,73.91
2022-08-26T12:03:19.763Z,73.80
2022-08-26T12:03:51.491Z,74.08
2022-08-26T12:04:30.922Z,74.08
2022-08-26T12:05:03.043Z,73.79
2022-08-26T12:06:45.204Z,72.93
2022-08-26T12:07:18.578Z,72.92
2022-08-26T12:07:56.794Z,73.05
2022-08-26T12:08:31.649Z,72.78
2022-08-26T12:09:10.403Z,71.12
2022-08-26T12:10:11.446Z,70.94
2022-08-26T12:10:43.709Z,70.98
2022-08-26T12:11:25.359Z,71.35
2022-08-26T12:12:35.269Z,71.40
2022-08-26T12:13:22.556Z,71.57
2022-08-26T12:14:05.619Z,71.46
2022-08-26T12:14:39.695Z,71.46
2022-08-26T12:15:16.220Z,71.54
2022-08-26T12:15:57.053Z,71.81
2022-08-26T12:16:30.665Z,71.79
2022-08-26T12:17:13.632Z,71.55
2022-08-26T12:17:50.478Z,71.57
2022-08-26T12:18:28.973Z,71.75
2022-08-26T12:19:01.283Z,71.64
2022-08-26T12:19:33.791Z,71.58
2022-08-26T12:20:06.799Z,71.79
2022-08-26T12:20:48.949Z,71.53
2022-08-26T12:21:24.623Z,71.45
2022-08-26T12:22:02.268Z,71.33
2022-08-26T12:22:38.829Z,71.27
2022-08-26T12:23:43.339Z,71.46
2022-08-26T12:24:18.644Z,71.70
2022-08-26T12:24:54.097Z,71.83
2022-08-26T12:25:25.892Z,71.61
2022-08-26T12:27:42.642Z,70.00
2022-08-26T12:28:14.178Z,69.73
2022-08-26T12:28:53.338Z,69.70
2022-08-26T12:29:27.604Z,69.96
2022-08-26T12:30:08.472Z,69.70
2022-08-26T12:30:40.100Z,69.84
2022-08-26T12:31:11.761Z,69.72
2022-08-26T12:31:44.419Z,69.22
2022-08-26T12:32:18.374Z,69.16
2022-08-26T12:32:58.865Z,68.62
2022-08-26T12:33:31.015Z,68.99
2022-08-26T12:34:05.350Z,69.55
2022-08-26T12:34:37.139Z,69.23
2022-08-26T12:35:13.717Z,68.80
2022-08-26T12:35:48.473Z,69.09
2022-08-26T12:36:27.646Z,68.87
2022-08-26T12:37:00.818Z,68.88
2022-08-26T12:37:35.611Z,68.54
2022-08-26T12:38:08.954Z,69.25
2022-08-26T12:38:40.999Z,68.95
2022-08-26T12:39:28.209Z,67.79
2022-08-26T12:40:30.840Z,68.61
2022-08-26T12:41:02.679Z,68.30
2022-08-26T12:41:42.279Z,68.97
2022-08-26T12:42:15.815Z,69.00
2022-08-26T12:42:47.760Z,69.48
2022-08-26T12:43:39.694Z,69.15
2022-08-26T12:44:41.571Z,69.45
2022-08-26T12:45:45.756Z,69.37
2022-08-26T12:46:18.188Z,68.86
2022-08-26T12:46:50.030Z,68.79
2022-08-26T12:47:42.545Z,68.31
2022-08-26T12:48:32.177Z,67.65
2022-08-26T12:49:04.168Z,67.66
2022-08-26T12:49:39.997Z,67.64
2022-08-26T12:50:29.803Z,68.23
2022-08-26T12:51:01.843Z,68.27
2022-08-26T12:51:35.496Z,68.79
2022-08-26T12:52:29.812Z,69.74
2022-08-26T12:53:10.325Z,68.07
2022-08-26T12:53:43.240Z,68.29
2022-08-26T12:54:16.264Z,68.48
2022-08-26T12:54:59.324Z,68.12
2022-08-26T12:55:44.956Z,68.36
2022-08-26T12:56:29.724Z,68.88
2022-08-26T12:57:12.717Z,68.80
2022-08-26T12:57:45.548Z,68.42
2022-08-26T12:58:31.935Z,67.79
2022-08-26T12:59:12.178Z,68.38
2022-08-26T12:59:45.087Z,68.75
2022-08-26T13:00:44.225Z,68.51
2022-08-26T13:01:22.345Z,68.70
2022-08-26T13:01:54.615Z,68.54
2022-08-26T13:02:36.551Z,68.55
2022-08-26T13:03:31.533Z,68.03
2022-08-26T13:04:03.446Z,68.43
2022-08-26T13:04:43.158Z,68.04
2022-08-26T13:05:27.815Z,67.99
2022-08-26T13:06:23.603Z,67.71
2022-08-26T13:07:14.837Z,67.72
2022-08-26T13:08:06.396Z,68.06
2022-08-26T13:08:42.283Z,67.77
2022-08-26T13:09:17.030Z,67.66
2022-08-26T13:09:50.493Z,67.85
2022-08-26T13:10:37.921Z,67.99
2022-08-26T13:11:23.631Z,67.34
2022-08-26T13:11:55.443Z,67.75
2022-08-26T13:12:33.193Z,67.38
2022-08-26T13:13:05.023Z,66.53
2022-08-26T13:13:37.350Z,67.11
2022-08-26T13:14:11.241Z,67.08
2022-08-26T13:14:42.824Z,67.61
2022-08-26T13:15:14.471Z,66.72
2022-08-26T13:15:46.357Z,67.56
2022-08-26T13:16:19.717Z,67.69
2022-08-26T13:16:52.066Z,67.45
2022-08-26T13:17:23.703Z,67.95
2022-08-26T13:17:55.461Z,67.77
2022-08-26T13:18:30.200Z,67.67
2022-08-26T13:19:10.258Z,68.02
2022-08-26T13:19:42.319Z,68.36
2022-08-26T13:20:13.978Z,67.89
2022-08-26T13:20:45.630Z,67.97
2022-08-26T13:21:20.999Z,68.99
2022-08-26T13:21:55.737Z,68.89
2022-08-26T13:22:27.422Z,69.19
2022-08-26T13:22:59.545Z,69.26
2022-08-26T13:23:31.124Z,69.51
2022-08-26T13:24:09.060Z,69.73
2022-08-26T13:24:42.613Z,70.55
2022-08-26T13:25:14.347Z,70.66
2022-08-26T13:25:51.801Z,70.86
2022-08-26T13:26:23.444Z,71.36
2022-08-26T13:26:57.797Z,71.72
2022-08-26T13:27:29.544Z,71.53
2022-08-26T13:28:01.117Z,71.68
2022-08-26T13:28:32.783Z,71.61
2022-08-26T13:29:09.572Z,71.91
2022-08-26T13:29:41.891Z,72.14
2022-08-26T13:30:13.888Z,72.56
2022-08-26T13:30:48.016Z,72.65
2022-08-26T13:31:20.745Z,73.01
2022-08-26T13:31:59.415Z,73.05
2022-08-26T13:32:31.757Z,72.75
2022-08-26T13:33:03.323Z,72.87
2022-08-26T13:33:36.729Z,72.79
2022-08-26T13:34:09.820Z,72.63
2022-08-26T13:34:41.915Z,72.76
2022-08-26T13:35:13.554Z,72.89
2022-08-26T13:35:45.141Z,73.27
2022-08-26T13:36:16.799Z,73.37
2022-08-26T13:36:50.804Z,73.63
2022-08-26T13:37:34.081Z,73.67
2022-08-26T13:38:08.927Z,73.83
2022-08-26T13:38:40.994Z,74.63
2022-08-26T13:39:13.218Z,74.27
2022-08-26T13:39:44.917Z,74.21
2022-08-26T13:40:16.947Z,74.42
2022-08-26T13:40:48.658Z,74.84
2022-08-26T13:41:29.227Z,74.55
2022-08-26T13:42:01.397Z,74.22
2022-08-26T13:42:33.105Z,74.02
2022-08-26T13:43:06.163Z,74.67
2022-08-26T13:43:37.738Z,74.32
2022-08-26T13:44:10.013Z,74.51
2022-08-26T13:44:43.781Z,74.14
2022-08-26T13:45:15.345Z,73.59
2022-08-26T13:45:49.566Z,73.53
2022-08-26T13:46:21.237Z,73.74
2022-08-26T13:46:52.978Z,74.02
2022-08-26T13:47:26.096Z,74.23
2022-08-26T13:48:00.435Z,75.04
2022-08-26T13:48:33.934Z,74.37
2022-08-26T13:49:05.629Z,74.12
2022-08-26T13:49:37.269Z,73.62
2022-08-26T13:50:09.145Z,73.99
2022-08-26T13:50:40.950Z,73.35
2022-08-26T13:51:12.561Z,73.27
2022-08-26T13:51:44.244Z,73.48
2022-08-26T13:52:16.575Z,73.40
2022-08-26T13:52:48.172Z,73.26
2022-08-26T13:53:20.189Z,72.75
2022-08-26T13:53:52.339Z,73.00
2022-08-26T13:54:24.387Z,73.33
2022-08-26T13:54:56.203Z,73.21
2022-08-26T13:55:28.298Z,72.80
2022-08-26T13:56:00.738Z,72.57
2022-08-26T13:56:33.264Z,72.08
2022-08-26T13:57:06.027Z,72.17
2022-08-26T13:57:38.513Z,72.31
2022-08-26T13:58:12.033Z,72.19
2022-08-26T13:58:44.067Z,73.08
2022-08-26T13:59:17.699Z,73.13
2022-08-26T13:59:49.289Z,72.42
2022-08-26T14:00:21.299Z,72.47
2022-08-26T14:00:53.438Z,73.03
2022-08-26T14:01:26.075Z,72.87
2022-08-26T14:01:58.797Z,72.72
2022-08-26T14:02:31.071Z,72.35
2022-08-26T14:03:02.911Z,71.77
2022-08-26T14:03:34.929Z,72.54
2022-08-26T14:04:07.197Z,72.77
2022-08-26T14:04:38.947Z,72.92
2022-08-26T14:05:10.667Z,73.32
2022-08-26T14:05:42.463Z,73.12
2022-08-26T14:06:14.726Z,72.68
2022-08-26T14:06:46.396Z,73.01
2022-08-26T14:07:19.505Z,72.32
2022-08-26T14:07:51.086Z,73.05
2022-08-26T14:08:23.102Z,73.24
2022-08-26T14:08:54.735Z,73.22
2022-08-26T14:09:26.354Z,73.63
2022-08-26T14:09:57.941Z,73.69
2022-08-26T14:10:29.618Z,73.61
2022-08-26T14:11:01.222Z,73.15
2022-08-26T14:11:34.767Z,73.75
2022-08-26T14:12:25.172Z,73.25
2022-08-26T14:12:57.352Z,73.16
2022-08-26T14:13:29.290Z,72.54
2022-08-26T14:14:01.169Z,72.57
2022-08-26T14:14:32.908Z,72.89
2022-08-26T14:15:04.870Z,72.90
2022-08-26T14:15:38.068Z,72.61
2022-08-26T14:16:15.896Z,72.82
2022-08-26T14:16:58.669Z,72.85
2022-08-26T14:17:32.401Z,71.96
2022-08-26T14:18:06.581Z,71.83
2022-08-26T14:18:42.553Z,71.74
2022-08-26T14:19:16.160Z,71.66
2022-08-26T14:19:49.661Z,71.77
2022-08-26T14:20:29.777Z,72.29
2022-08-26T14:21:01.585Z,71.40
2022-08-26T14:21:37.829Z,71.94
2022-08-26T14:22:09.428Z,71.69
2022-08-26T14:22:57.429Z,71.54
2022-08-26T14:23:35.171Z,71.37
2022-08-26T14:24:07.088Z,71.31
2022-08-26T14:24:38.659Z,71.12
2022-08-26T14:25:13.735Z,71.52
2022-08-26T14:25:45.580Z,71.86
2022-08-26T14:26:28.175Z,71.34
2022-08-26T14:27:01.295Z,71.89
2022-08-26T14:27:32.846Z,71.71
2022-08-26T14:28:04.703Z,71.59
2022-08-26T14:28:37.784Z,71.43
2022-08-26T14:29:12.371Z,71.57
2022-08-26T14:29:46.339Z,71.90
2022-08-26T14:30:18.314Z,72.30
2022-08-26T14:30:55.904Z,72.00
2022-08-26T14:31:29.406Z,71.90
2022-08-26T14:32:03.587Z,71.74
2022-08-26T14:32:35.515Z,71.77
2022-08-26T14:33:10.947Z,71.96
2022-08-26T14:33:43.064Z,71.86
2022-08-26T14:34:14.805Z,71.72
2022-08-26T14:34:46.362Z,71.77
2022-08-26T14:35:20.914Z,72.43
2022-08-26T14:35:52.579Z,72.55
2022-08-26T14:36:32.006Z,72.34
2022-08-26T14:37:07.638Z,72.54
2022-08-26T14:37:40.419Z,72.41
2022-08-26T14:38:12.247Z,72.38
2022-08-26T14:38:44.364Z,72.67
2022-08-26T14:39:15.945Z,72.99
2022-08-26T14:39:48.075Z,72.79
2022-08-26T14:40:22.367Z,72.86
2022-08-26T14:40:53.947Z,72.68
2022-08-26T14:41:27.120Z,72.92
2022-08-26T14:41:59.403Z,72.80
2022-08-26T14:42:31.377Z,72.84
2022-08-26T14:43:05.403Z,73.09
2022-08-26T14:43:45.718Z,73.15
2022-08-26T14:44:17.946Z,73.27
2022-08-26T14:44:54.756Z,73.13
2022-08-26T14:45:30.416Z,72.65
2022-08-26T14:46:02.431Z,72.61
2022-08-26T14:46:45.754Z,72.85
2022-08-26T14:47:18.066Z,73.21
2022-08-26T14:47:50.785Z,73.17
2022-08-26T14:48:22.428Z,72.93
2022-08-26T14:48:54.698Z,73.25
2022-08-26T14:49:32.680Z,73.60
2022-08-26T14:50:04.916Z,73.41
2022-08-26T14:50:36.722Z,73.39
2022-08-26T14:51:08.361Z,73.65
2022-08-26T14:51:40.946Z,73.15
2022-08-26T14:52:12.940Z,73.54
2022-08-26T14:53:03.275Z,73.57
2022-08-26T14:53:53.475Z,73.14
2022-08-26T14:54:25.079Z,72.57
2022-08-26T14:54:56.935Z,72.89
2022-08-26T14:55:29.212Z,73.07
2022-08-26T14:56:01.555Z,72.74
2022-08-26T14:56:33.598Z,72.78
2022-08-26T14:57:07.911Z,72.56
2022-08-26T14:57:39.506Z,72.30
2022-08-26T14:58:11.108Z,72.79
2022-08-26T14:58:44.053Z,72.42
2022-08-26T14:59:21.510Z,72.43
2022-08-26T14:59:53.459Z,72.68